Time;durP1;ratioP1;P1;durP2;ratioP2;P2;SDS_P1;SDS_P2;PMS_P1;PMS_P2;Temp;Humidity;BMP_temperature;BMP_pressure;BME280_temperature;BME280_humidity;BME280_pressure;Samples;Min_cycle;Max_cycle;Signal;HPM_P1;HPM_P2
2022/07/13 00:00:16;;;;;;;9.32;6.90;;;30.10;99.90;;;;;;5000180;23;20055;-40
2022/07/13 00:02:42;;;;;;;8.70;7.32;;;30.10;99.90;;;;;;4973075;28;20140;-40
2022/07/13 00:05:08;;;;;;;9.55;7.57;;;30.10;99.90;;;;;;4972811;28;20054;-40
2022/07/13 00:07:35;;;;;;;9.73;8.30;;;30.10;99.90;;;;;;4972886;28;20026;-40
2022/07/13 00:10:02;;;;;;;9.00;7.28;;;30.10;99.90;;;;;;4972943;28;20038;-40
2022/07/13 00:12:28;;;;;;;8.60;7.57;;;30.10;99.90;;;;;;4955393;28;20042;-40
2022/07/13 00:14:54;;;;;;;8.55;7.57;;;30.00;99.90;;;;;;4972965;28;20035;-40
2022/07/13 00:17:20;;;;;;;11.18;8.40;;;30.00;99.90;;;;;;4972954;28;20030;-40
2022/07/13 00:19:45;;;;;;;8.95;7.30;;;30.00;99.90;;;;;;4972795;28;20038;-40
2022/07/13 00:22:11;;;;;;;8.30;6.93;;;30.00;99.90;;;;;;4973046;28;20030;-40
2022/07/13 00:24:37;;;;;;;9.60;7.13;;;30.00;99.90;;;;;;4972778;28;20502;-40
2022/07/13 00:27:03;;;;;;;9.38;7.35;;;30.00;99.90;;;;;;4972700;28;20501;-40
2022/07/13 00:29:29;;;;;;;9.55;8.18;;;30.00;99.90;;;;;;4972590;28;20034;-40
2022/07/13 00:31:55;;;;;;;8.52;6.80;;;30.00;99.90;;;;;;4972778;28;20522;-41
2022/07/13 00:34:21;;;;;;;9.35;7.70;;;30.00;99.90;;;;;;4972566;28;20518;-41
2022/07/13 00:36:47;;;;;;;9.50;7.63;;;30.00;99.90;;;;;;4955172;28;20413;-40
2022/07/13 00:39:12;;;;;;;9.18;7.65;;;30.00;99.90;;;;;;4972614;28;20480;-40
2022/07/13 00:41:48;;;;;;;10.15;8.13;;;30.00;99.90;;;;;;4972485;28;20431;-40
2022/07/13 00:44:15;;;;;;;8.80;7.45;;;30.00;99.90;;;;;;4972584;28;20078;-40
2022/07/13 00:46:45;;;;;;;10.10;7.57;;;30.00;99.90;;;;;;4972434;28;20027;-40
2022/07/13 00:49:12;;;;;;;8.48;6.75;;;30.00;99.90;;;;;;4972288;28;20548;-40
2022/07/13 00:51:39;;;;;;;9.13;7.47;;;30.00;99.90;;;;;;4972381;28;20105;-40
2022/07/13 00:54:05;;;;;;;9.13;7.23;;;30.00;99.90;;;;;;4972095;28;20043;-40
2022/07/13 00:56:33;;;;;;;8.38;6.85;;;30.00;99.90;;;;;;4972215;28;20027;-40
2022/07/13 00:58:59;;;;;;;;;;;30.00;99.90;;;;;;4955417;28;20507;-40
2022/07/13 01:01:27;;;;;;;8.50;7.32;;;30.00;99.90;;;;;;4972715;28;20005;-40
2022/07/13 01:03:53;;;;;;;11.35;8.20;;;30.00;99.90;;;;;;4972165;28;20027;-41
2022/07/13 01:06:19;;;;;;;8.68;7.10;;;30.00;99.90;;;;;;4972074;28;20453;-41
2022/07/13 01:08:46;;;;;;;8.82;7.18;;;30.00;99.90;;;;;;4972231;28;20082;-41
2022/07/13 01:11:12;;;;;;;9.50;7.63;;;30.00;99.90;;;;;;4972184;28;20022;-40
2022/07/13 01:13:40;;;;;;;8.13;6.72;;;29.90;99.90;;;;;;4971892;28;20297;-40
2022/07/13 01:16:08;;;;;;;8.80;6.93;;;29.90;99.90;;;;;;4972006;28;20038;-40
2022/07/13 01:18:34;;;;;;;9.32;7.35;;;29.90;99.90;;;;;;4972136;28;20041;-40
2022/07/13 01:21:00;;;;;;;9.00;7.38;;;29.90;99.90;;;;;;4972282;28;20659;-40
2022/07/13 01:23:27;;;;;;;9.07;7.10;;;30.00;99.90;;;;;;4972259;28;20077;-40
2022/07/13 01:25:56;;;;;;;8.65;7.60;;;29.90;99.90;;;;;;4972168;28;20022;-40
2022/07/13 01:28:24;;;;;;;10.13;7.18;;;29.90;99.90;;;;;;4972037;28;20071;-40
2022/07/13 01:30:50;;;;;;;9.20;7.80;;;29.90;99.90;;;;;;4972083;28;20023;-40
2022/07/13 01:33:16;;;;;;;7.97;7.03;;;29.90;99.90;;;;;;4971848;28;20392;-40
2022/07/13 01:35:42;;;;;;;9.75;7.53;;;29.90;99.90;;;;;;4971837;28;20042;-40
2022/07/13 01:38:09;;;;;;;7.55;6.53;;;29.90;99.90;;;;;;4972034;28;20050;-40
2022/07/13 01:40:35;;;;;;;10.13;7.70;;;29.90;99.90;;;;;;4972016;28;20023;-40
2022/07/13 01:43:00;;;;;;;8.02;6.93;;;29.90;99.90;;;;;;4972123;28;20030;-41
2022/07/13 01:45:26;;;;;;;7.60;6.50;;;29.90;99.90;;;;;;4954472;28;20027;-40
2022/07/13 01:47:54;;;;;;;8.60;7.30;;;29.90;99.90;;;;;;4954301;28;20046;-40
2022/07/13 01:50:22;;;;;;;7.88;6.97;;;29.90;99.90;;;;;;4971666;28;20081;-40
2022/07/13 01:52:48;;;;;;;8.52;7.10;;;29.90;99.90;;;;;;4971497;28;20035;-40
2022/07/13 01:55:15;;;;;;;8.30;7.28;;;29.90;99.90;;;;;;4971655;28;20038;-40
2022/07/13 01:57:41;;;;;;;7.47;6.13;;;29.90;99.90;;;;;;4954275;28;20493;-40
2022/07/13 02:00:11;;;;;;;8.23;6.80;;;29.80;99.90;;;;;;5000612;23;20303;-46
2022/07/13 02:02:37;;;;;;;7.97;6.47;;;29.80;99.90;;;;;;5010684;28;20106;-45
2022/07/13 02:05:03;;;;;;;9.80;6.05;;;29.80;99.90;;;;;;5011747;28;20108;-45
2022/07/13 02:07:28;;;;;;;7.82;6.40;;;29.80;99.90;;;;;;5014268;28;20044;-45
2022/07/13 02:09:54;;;;;;;7.10;5.85;;;29.80;99.90;;;;;;5014065;28;20029;-46
2022/07/13 02:12:21;;;;;;;9.07;6.78;;;29.80;99.90;;;;;;5013867;28;20045;-46
2022/07/13 02:14:47;;;;;;;9.45;6.32;;;29.80;99.90;;;;;;5013933;28;20026;-45
2022/07/13 02:17:13;;;;;;;7.70;6.30;;;29.80;99.90;;;;;;4996276;28;20033;-46
2022/07/13 02:19:39;;;;;;;8.25;7.13;;;29.80;99.90;;;;;;4979950;28;20037;-46
2022/07/13 02:22:06;;;;;;;7.40;6.18;;;29.80;99.90;;;;;;5013748;28;20435;-46
2022/07/13 02:24:33;;;;;;;;;;;29.80;99.90;;;;;;5014517;28;20030;-46
2022/07/13 02:26:59;;;;;;;7.30;5.97;;;29.80;99.90;;;;;;5013955;28;19905;-46
2022/07/13 02:29:25;;;;;;;7.55;6.25;;;29.80;99.90;;;;;;5013735;28;20440;-47
2022/07/13 02:31:51;;;;;;;6.32;5.60;;;29.80;99.90;;;;;;5013733;28;20109;-46
2022/07/13 02:34:17;;;;;;;7.65;6.15;;;29.80;99.90;;;;;;5013406;28;20511;-46
2022/07/13 02:36:43;;;;;;;7.63;6.38;;;29.80;99.90;;;;;;5013546;28;20025;-46
2022/07/13 02:39:09;;;;;;;7.10;5.75;;;29.80;99.90;;;;;;5013534;28;20030;-46
2022/07/13 02:41:35;;;;;;;5.80;5.20;;;29.80;99.90;;;;;;5013755;28;20029;-46
2022/07/13 02:44:01;;;;;;;7.70;5.90;;;29.80;99.90;;;;;;5013651;28;20026;-46
2022/07/13 02:46:27;;;;;;;7.82;5.85;;;29.80;99.90;;;;;;5013477;28;20026;-46
2022/07/13 02:48:53;;;;;;;6.97;6.05;;;29.80;99.90;;;;;;5013379;28;20026;-45
2022/07/13 02:51:18;;;;;;;7.47;6.28;;;29.80;99.90;;;;;;5013363;28;20361;-46
2022/07/13 02:53:44;;;;;;;6.63;5.70;;;29.80;99.90;;;;;;5013194;28;20376;-46
2022/07/13 02:56:10;;;;;;;7.07;5.80;;;29.80;99.90;;;;;;5013183;28;20472;-45
2022/07/13 02:58:36;;;;;;;7.55;6.25;;;29.80;99.90;;;;;;4995972;28;20033;-45
2022/07/13 03:01:01;;;;;;;7.43;6.03;;;29.80;99.90;;;;;;5013576;28;20041;-45
2022/07/13 03:03:27;;;;;;;8.02;6.22;;;29.70;99.90;;;;;;5013195;28;20068;-46
2022/07/13 03:05:53;;;;;;;7.97;6.57;;;29.80;99.90;;;;;;5012994;28;20022;-46
2022/07/13 03:08:19;;;;;;;6.60;5.90;;;29.70;99.90;;;;;;5012999;28;20054;-46
2022/07/13 03:10:45;;;;;;;6.25;5.38;;;29.70;99.90;;;;;;5013034;28;20088;-46
2022/07/13 03:13:11;;;;;;;6.17;5.20;;;29.70;99.90;;;;;;5012822;28;20040;-46
2022/07/13 03:15:37;;;;;;;6.43;5.75;;;29.70;99.90;;;;;;5012808;28;20255;-45
2022/07/13 03:18:03;;;;;;;7.00;5.90;;;29.70;99.90;;;;;;5013161;28;20061;-45
2022/07/13 03:20:29;;;;;;;7.43;6.10;;;29.70;99.90;;;;;;5013035;28;20049;-46
2022/07/13 03:22:55;;;;;;;6.10;5.50;;;29.70;99.90;;;;;;5013079;28;20476;-46
2022/07/13 03:25:20;;;;;;;5.85;5.25;;;29.70;99.90;;;;;;5012780;28;20034;-46
2022/07/13 03:27:46;;;;;;;5.50;4.90;;;29.70;99.90;;;;;;5012710;28;20499;-45
2022/07/13 03:30:12;;;;;;;6.35;5.43;;;29.70;99.90;;;;;;5012663;28;20083;-45
2022/07/13 03:32:38;;;;;;;6.20;5.13;;;29.70;99.90;;;;;;5012567;28;20033;-46
2022/07/13 03:35:04;;;;;;;6.53;5.80;;;29.70;99.90;;;;;;5012781;28;20104;-45
2022/07/13 03:37:29;;;;;;;7.03;5.65;;;29.70;99.90;;;;;;5012540;28;20211;-46
2022/07/13 03:39:55;;;;;;;6.00;5.22;;;29.70;99.90;;;;;;5012385;28;20022;-46
2022/07/13 03:42:21;;;;;;;6.95;5.65;;;29.70;99.90;;;;;;5012371;28;20058;-45
2022/07/13 03:44:47;;;;;;;6.65;5.40;;;29.70;99.90;;;;;;5012292;28;20397;-45
2022/07/13 03:47:13;;;;;;;6.55;4.97;;;29.70;99.90;;;;;;5012245;28;20026;-46
2022/07/13 03:49:40;;;;;;;6.00;5.25;;;29.70;99.90;;;;;;5012176;28;20428;-45
2022/07/13 03:52:06;;;;;;;6.85;5.18;;;29.70;99.90;;;;;;5012297;28;20449;-46
2022/07/13 03:54:31;;;;;;;6.03;5.07;;;29.70;99.90;;;;;;5012000;28;20042;-45
2022/07/13 03:56:58;;;;;;;5.75;4.75;;;29.70;99.90;;;;;;5012157;28;20475;-46
2022/07/13 03:59:24;;;;;;;5.00;4.50;;;29.70;99.90;;;;;;5012504;28;20068;-44
2022/07/13 04:01:50;;;;;;;5.32;4.68;;;29.70;99.90;;;;;;5012478;28;20065;-46
2022/07/13 04:04:15;;;;;;;5.78;4.53;;;29.70;99.90;;;;;;5012017;28;20033;-45
2022/07/13 04:06:41;;;;;;;4.95;4.25;;;29.70;99.90;;;;;;5011779;28;20399;-45
2022/07/13 04:09:07;;;;;;;5.75;4.55;;;29.70;99.90;;;;;;5011932;28;20097;-45
2022/07/13 04:11:33;;;;;;;5.00;4.45;;;29.70;99.90;;;;;;5011651;28;20049;-45
2022/07/13 04:13:58;;;;;;;5.10;4.32;;;29.70;99.90;;;;;;5011461;28;20034;-45
2022/07/13 04:16:24;;;;;;;5.40;4.60;;;29.70;99.90;;;;;;5011617;28;20049;-45
2022/07/13 04:18:50;;;;;;;5.22;4.72;;;29.60;99.90;;;;;;5011845;28;20083;-45
2022/07/13 04:21:15;;;;;;;4.85;4.35;;;29.70;99.90;;;;;;5011712;28;20471;-45
2022/07/13 04:23:41;;;;;;;4.70;4.18;;;29.60;99.90;;;;;;5011601;28;20026;-45
2022/07/13 04:26:07;;;;;;;4.53;4.10;;;29.60;99.90;;;;;;5011793;28;20026;-45
2022/07/13 04:28:33;;;;;;;5.15;4.22;;;29.60;99.90;;;;;;5011077;28;20032;-45
2022/07/13 04:30:59;;;;;;;5.05;4.43;;;29.60;99.90;;;;;;5011696;28;20450;-44
2022/07/13 04:33:25;;;;;;;5.23;4.63;;;29.60;99.90;;;;;;5011475;28;20038;-46
2022/07/13 04:35:51;;;;;;;4.43;4.00;;;29.60;99.90;;;;;;5011456;28;20279;-44
2022/07/13 04:38:17;;;;;;;4.50;4.10;;;29.60;99.90;;;;;;5011545;28;20399;-45
2022/07/13 04:40:42;;;;;;;4.63;3.70;;;29.60;99.90;;;;;;4993877;28;20061;-44
2022/07/13 04:43:08;;;;;;;4.10;3.63;;;29.60;99.90;;;;;;5011883;28;20022;-45
2022/07/13 04:45:34;;;;;;;4.75;4.15;;;29.60;99.90;;;;;;5011396;28;20040;-46
2022/07/13 04:48:00;;;;;;;5.28;4.18;;;29.60;99.90;;;;;;5011465;28;20026;-45
2022/07/13 04:50:26;;;;;;;5.38;4.30;;;29.60;99.90;;;;;;5011335;28;20042;-46
2022/07/13 04:52:52;;;;;;;4.78;4.18;;;29.60;99.90;;;;;;5011179;28;20030;-45
2022/07/13 04:55:18;;;;;;;5.10;4.30;;;29.60;99.90;;;;;;5011424;28;20026;-47
2022/07/13 04:57:44;;;;;;;5.07;3.90;;;29.60;99.90;;;;;;4993650;28;20083;-47
2022/07/13 05:00:11;;;;;;;4.63;4.00;;;29.60;99.90;;;;;;5011038;28;20058;-47
2022/07/13 05:02:38;;;;;;;4.90;4.18;;;29.60;99.90;;;;;;5011349;28;20038;-46
2022/07/13 05:05:04;;;;;;;4.97;4.17;;;29.60;99.90;;;;;;5011221;28;20074;-46
2022/07/13 05:07:30;;;;;;;5.28;4.22;;;29.60;99.90;;;;;;5011264;28;20030;-46
2022/07/13 05:09:56;;;;;;;4.35;3.78;;;29.60;99.90;;;;;;5011125;28;20345;-46
2022/07/13 05:12:22;;;;;;;5.78;4.55;;;29.60;99.90;;;;;;5011001;28;20092;-46
2022/07/13 05:14:48;;;;;;;4.97;4.43;;;29.60;99.90;;;;;;5011172;28;20519;-46
2022/07/13 05:17:13;;;;;;;5.40;4.20;;;29.60;99.90;;;;;;4993493;28;20033;-46
2022/07/13 05:19:39;;;;;;;4.68;3.85;;;29.60;99.90;;;;;;5011161;28;20165;-46
2022/07/13 05:22:05;;;;;;;6.22;4.00;;;29.60;99.90;;;;;;5011113;28;20026;-45
2022/07/13 05:24:31;;;;;;;5.00;3.90;;;29.60;99.90;;;;;;5011049;28;20026;-46
2022/07/13 05:26:57;;;;;;;6.40;4.38;;;29.60;99.90;;;;;;5010995;28;20030;-46
2022/07/13 05:29:22;;;;;;;4.85;3.75;;;29.60;99.90;;;;;;5010954;28;20361;-46
2022/07/13 05:31:48;;;;;;;5.45;4.25;;;29.60;99.90;;;;;;5010936;28;20061;-46
2022/07/13 05:34:14;;;;;;;6.13;4.32;;;29.60;99.90;;;;;;5010935;28;20104;-46
2022/07/13 05:36:40;;;;;;;4.75;4.07;;;29.60;99.90;;;;;;5011018;28;20029;-46
2022/07/13 05:39:06;;;;;;;4.68;3.95;;;29.60;99.90;;;;;;5010762;28;20133;-45
2022/07/13 05:41:34;;;;;;;5.85;4.13;;;29.60;99.90;;;;;;5014021;28;20013;-45
2022/07/13 05:44:00;;;;;;;4.68;3.83;;;29.60;99.90;;;;;;4997402;28;20025;-46
2022/07/13 05:46:27;;;;;;;5.53;3.88;;;29.60;99.90;;;;;;5014439;28;20487;-45
2022/07/13 05:48:53;;;;;;;5.47;4.35;;;29.60;99.90;;;;;;5014435;28;20026;-45
2022/07/13 05:51:19;;;;;;;5.70;4.32;;;29.60;99.90;;;;;;5014432;28;20036;-45
2022/07/13 05:53:45;;;;;;;4.15;3.72;;;29.60;99.90;;;;;;5014579;28;20124;-46
2022/07/13 05:56:11;;;;;;;8.25;3.83;;;29.60;99.90;;;;;;5014464;28;20033;-46
2022/07/13 05:58:36;;;;;;;5.15;4.25;;;29.60;99.90;;;;;;5014311;28;20392;-46
2022/07/13 06:01:02;;;;;;;6.05;4.28;;;29.60;99.90;;;;;;5014184;28;20149;-46
2022/07/13 06:03:28;;;;;;;5.40;3.90;;;29.60;99.90;;;;;;5014155;28;20033;-45
2022/07/13 06:05:54;;;;;;;4.30;3.40;;;29.60;99.90;;;;;;5014089;28;20029;-45
2022/07/13 06:08:20;;;;;;;4.72;3.88;;;29.60;99.90;;;;;;5014167;28;20386;-45
2022/07/13 06:10:46;;;;;;;6.80;3.72;;;29.60;99.90;;;;;;5014245;28;20042;-45
2022/07/13 06:13:12;;;;;;;4.70;4.03;;;29.60;99.90;;;;;;5014087;28;20033;-46
2022/07/13 06:15:37;;;;;;;4.75;4.03;;;29.60;99.90;;;;;;5014113;28;20026;-46
2022/07/13 06:18:05;;;;;;;4.63;3.90;;;29.60;99.90;;;;;;5013683;28;20030;-46
2022/07/13 06:20:30;;;;;;;7.13;4.13;;;29.60;99.90;;;;;;5013911;28;20045;-46
2022/07/13 06:23:09;;;;;;;4.18;3.67;;;29.60;99.90;;;;;;5013805;28;20507;-46
2022/07/13 06:25:35;;;;;;;6.03;4.45;;;29.60;99.90;;;;;;5013753;28;20030;-46
2022/07/13 06:28:01;;;;;;;4.57;3.60;;;29.60;99.90;;;;;;5013654;28;20028;-46
2022/07/13 06:30:27;;;;;;;4.75;4.25;;;29.60;99.90;;;;;;5013697;28;20101;-46
2022/07/13 06:32:52;;;;;;;4.95;4.30;;;29.60;99.90;;;;;;5013481;28;20034;-46
2022/07/13 06:35:18;;;;;;;4.35;3.60;;;29.60;99.90;;;;;;5013424;28;20033;-46
2022/07/13 06:37:44;;;;;;;5.05;3.50;;;29.60;99.90;;;;;;5013928;28;20033;-47
2022/07/13 06:40:10;;;;;;;5.13;3.88;;;29.60;99.90;;;;;;5013387;28;20030;-46
2022/07/13 06:42:36;;;;;;;6.55;3.97;;;29.60;99.90;;;;;;5013411;28;20072;-46
2022/07/13 06:45:01;;;;;;;4.43;3.88;;;29.60;99.90;;;;;;5013438;28;20049;-46
2022/07/13 06:47:27;;;;;;;5.82;4.45;;;29.70;99.90;;;;;;5013506;28;20538;-46
2022/07/13 06:49:53;;;;;;;5.60;3.75;;;29.70;99.90;;;;;;5013178;28;20025;-46
2022/07/13 06:52:19;;;;;;;5.65;3.85;;;29.70;99.90;;;;;;5012803;28;20379;-47
2022/07/13 06:54:45;;;;;;;5.38;4.13;;;29.70;99.90;;;;;;5013404;28;20034;-46
2022/07/13 06:57:11;;;;;;;4.28;3.75;;;29.70;99.90;;;;;;5013143;28;20026;-46
2022/07/13 06:59:37;;;;;;;5.57;4.53;;;29.70;99.90;;;;;;5012901;28;20033;-46
2022/07/13 07:02:03;;;;;;;6.60;4.28;;;29.70;99.90;;;;;;5013000;28;20030;-46
2022/07/13 07:04:29;;;;;;;5.20;4.20;;;29.70;99.90;;;;;;5012907;28;20064;-46
2022/07/13 07:06:56;;;;;;;9.32;7.28;;;29.70;99.90;;;;;;5013091;28;20071;-47
2022/07/13 07:09:22;;;;;;;6.38;5.70;;;29.70;99.90;;;;;;5012893;28;20033;-46
2022/07/13 07:11:48;;;;;;;6.22;5.45;;;29.70;99.90;;;;;;5013127;28;20100;-46
2022/07/13 07:14:14;;;;;;;5.63;4.90;;;29.70;99.90;;;;;;5012879;28;20082;-46
2022/07/13 07:16:42;;;;;;;6.38;5.60;;;29.70;99.90;;;;;;5012717;28;20029;-47
2022/07/13 07:19:08;;;;;;;7.15;5.50;;;29.70;99.90;;;;;;5012674;28;20033;-47
2022/07/13 07:21:34;;;;;;;5.72;5.00;;;29.70;99.90;;;;;;5012766;28;20299;-46
2022/07/13 07:23:59;;;;;;;7.47;5.32;;;29.70;99.90;;;;;;5012558;28;20033;-46
2022/07/13 07:26:26;;;;;;;6.28;5.07;;;29.70;99.90;;;;;;5012413;28;20121;-47
2022/07/13 07:28:51;;;;;;;5.10;4.60;;;29.70;99.90;;;;;;5012446;28;20117;-46
2022/07/13 07:31:17;;;;;;;7.30;4.68;;;29.70;99.90;;;;;;5012625;28;20519;-46
2022/07/13 07:33:43;;;;;;;6.45;4.90;;;29.70;99.90;;;;;;5012409;28;20034;-46
2022/07/13 07:36:09;;;;;;;5.75;5.05;;;29.70;99.90;;;;;;5012505;28;20030;-46
2022/07/13 07:38:35;;;;;;;7.27;4.60;;;29.80;99.90;;;;;;5012379;28;20391;-45
2022/07/13 07:41:01;;;;;;;7.00;5.20;;;29.80;99.90;;;;;;5012405;28;20109;-48
2022/07/13 07:43:27;;;;;;;7.22;4.90;;;29.80;99.90;;;;;;5012460;28;20030;-46
2022/07/13 07:45:53;;;;;;;6.97;5.47;;;29.80;99.90;;;;;;5012246;28;20038;-46
2022/07/13 07:48:19;;;;;;;6.00;5.13;;;29.80;99.90;;;;;;5012513;28;20026;-46
2022/07/13 07:50:46;;;;;;;6.03;4.93;;;29.80;99.90;;;;;;5012319;28;20764;-47
2022/07/13 07:53:11;;;;;;;8.40;5.20;;;29.80;99.90;;;;;;5012079;28;20048;-45
2022/07/13 07:55:37;;;;;;;7.93;5.28;;;29.80;99.90;;;;;;5012077;28;20022;-46
2022/07/13 07:58:03;;;;;;;7.18;5.10;;;29.80;99.90;;;;;;5012143;28;20080;-45
2022/07/13 08:00:30;;;;;;;7.10;5.15;;;29.80;99.90;;;;;;5012006;28;20514;-45
2022/07/13 08:03:03;;;;;;;6.45;5.05;;;29.80;99.90;;;;;;5011322;28;20022;-45
2022/07/13 08:05:30;;;;;;;6.03;4.75;;;29.80;99.90;;;;;;5011935;28;20107;-45
2022/07/13 08:07:56;;;;;;;8.18;5.18;;;29.80;99.90;;;;;;5012103;28;20026;-45
2022/07/13 08:10:22;;;;;;;8.60;5.10;;;29.80;99.90;;;;;;5012056;28;20114;-45
2022/07/13 08:12:47;;;;;;;5.50;4.70;;;29.80;99.90;;;;;;5011931;28;20120;-46
2022/07/13 08:15:13;;;;;;;7.20;5.47;;;29.80;99.90;;;;;;5011812;28;20105;-46
2022/07/13 08:17:39;;;;;;;7.03;4.65;;;29.80;99.90;;;;;;5011876;28;20419;-46
2022/07/13 08:20:06;;;;;;;5.93;4.40;;;29.80;99.90;;;;;;5011791;28;20113;-46
2022/07/13 08:22:33;;;;;;;7.80;5.60;;;29.80;99.90;;;;;;5011822;28;20080;-46
2022/07/13 08:24:58;;;;;;;7.47;4.80;;;29.90;99.90;;;;;;5011744;28;20036;-45
2022/07/13 08:27:26;;;;;;;8.77;5.00;;;29.90;99.90;;;;;;5011629;28;20022;-45
2022/07/13 08:29:51;;;;;;;;;;;29.90;99.90;;;;;;5012274;28;20072;-46
2022/07/13 08:32:17;;;;;;;6.45;4.55;;;29.90;99.90;;;;;;5011578;28;20314;-45
2022/07/13 08:40:13;;;;;;;11.98;5.03;;;29.90;99.90;;;;;;5011817;28;20434;-46
2022/07/13 08:42:39;;;;;;;6.82;4.82;;;29.90;99.90;;;;;;5011458;28;20025;-45
2022/07/13 08:45:06;;;;;;;5.77;4.57;;;29.90;99.90;;;;;;5011279;28;20060;-45
2022/07/13 08:47:31;;;;;;;6.67;4.97;;;29.90;99.90;;;;;;5011267;28;20338;-47
2022/07/13 08:50:01;;;;;;;6.22;4.80;;;29.90;99.90;;;;;;5011265;28;20105;-47
2022/07/13 08:52:28;;;;;;;8.43;4.80;;;29.90;99.90;;;;;;5011116;28;20100;-47
2022/07/13 08:54:54;;;;;;;6.20;4.45;;;29.90;99.90;;;;;;5011431;28;20053;-45
2022/07/13 08:57:20;;;;;;;5.85;4.45;;;30.00;99.90;;;;;;5011307;28;20030;-46
2022/07/13 08:59:46;;;;;;;4.63;4.18;;;29.90;99.90;;;;;;5010858;28;20518;-45
2022/07/13 09:02:12;;;;;;;6.70;4.90;;;29.90;99.90;;;;;;4993361;28;20391;-45
2022/07/13 09:04:40;;;;;;;6.45;4.18;;;29.90;99.90;;;;;;5011276;28;20018;-45
2022/07/13 09:07:11;;;;;;;7.50;4.35;;;29.90;99.90;;;;;;5011305;28;20113;-45
2022/07/13 09:09:38;;;;;;;5.82;4.18;;;29.90;99.90;;;;;;5011128;28;20018;-45
2022/07/13 09:12:16;;;;;;;5.40;4.18;;;29.90;99.90;;;;;;5011067;28;20498;-45
2022/07/13 09:14:44;;;;;;;5.78;4.53;;;29.90;99.90;;;;;;5013061;28;20128;-45
2022/07/13 09:17:35;;;;;;;;;;;30.00;99.90;;;;;;5015482;28;20434;-45
2022/07/13 09:20:14;;;;;;;5.38;3.92;;;30.00;99.90;;;;;;5010879;28;19905;-46
2022/07/13 09:22:49;;;;;;;5.68;4.60;;;30.00;99.90;;;;;;5014856;28;20054;-46
2022/07/13 09:25:35;;;;;;;6.28;4.20;;;29.90;99.90;;;;;;5014853;28;20033;-46
2022/07/13 09:28:13;;;;;;;5.95;4.25;;;30.00;99.90;;;;;;5014825;28;20029;-46
2022/07/13 09:30:43;;;;;;;5.15;3.80;;;30.00;99.90;;;;;;5014696;28;20096;-46
2022/07/13 09:33:10;;;;;;;4.70;3.80;;;30.00;99.90;;;;;;5014530;28;20033;-46
2022/07/13 09:35:49;;;;;;;5.83;3.50;;;30.00;99.90;;;;;;5014552;28;20026;-46
2022/07/13 09:38:43;;;;;;;5.90;3.83;;;30.00;99.90;;;;;;5014413;28;20026;-46
2022/07/13 09:41:21;;;;;;;5.85;4.60;;;30.00;99.90;;;;;;5014595;28;20026;-46
2022/07/13 09:46:52;;;;;;;5.65;3.95;;;30.00;99.90;;;;;;5014772;28;20229;-47
2022/07/13 09:49:28;;;;;;;6.43;3.85;;;30.00;99.90;;;;;;5014336;28;20029;-46
2022/07/13 09:51:58;;;;;;;5.75;3.70;;;30.00;99.90;;;;;;5014504;28;20029;-47
2022/07/13 09:54:29;;;;;;;5.25;3.83;;;30.00;99.90;;;;;;5014368;28;20040;-46
2022/07/13 09:57:10;;;;;;;5.65;3.78;;;30.00;99.90;;;;;;5014379;28;20037;-46
2022/07/13 09:59:37;;;;;;;5.72;3.78;;;30.00;99.90;;;;;;5013932;28;20395;-46
2022/07/13 10:02:04;;;;;;;5.05;4.07;;;30.00;99.90;;;;;;5014202;28;20017;-46
2022/07/13 10:04:35;;;;;;;8.18;4.47;;;30.00;99.90;;;;;;5014052;28;20026;-46
2022/07/13 10:07:05;;;;;;;5.53;4.07;;;30.00;99.90;;;;;;5014070;28;20053;-47
2022/07/13 10:09:31;;;;;;;7.47;4.00;;;30.00;99.90;;;;;;5013987;28;20037;-46
2022/07/13 10:11:58;;;;;;;8.45;4.38;;;30.00;99.90;;;;;;5014469;28;20431;-46
2022/07/13 10:14:27;;;;;;;7.25;4.38;;;30.10;99.90;;;;;;5014069;28;20500;-46
2022/07/13 10:17:06;;;;;;;6.63;4.25;;;30.10;99.90;;;;;;5013925;28;20081;-46
2022/07/13 10:19:33;;;;;;;6.00;4.10;;;30.10;99.90;;;;;;5013730;28;20038;-46
2022/07/13 10:22:11;;;;;;;;;;;30.10;99.90;;;;;;5014333;28;20105;-46
2022/07/13 10:24:37;;;;;;;5.47;3.90;;;30.10;99.90;;;;;;5013669;28;20279;-47
2022/07/13 10:27:22;;;;;;;4.80;3.78;;;30.10;99.90;;;;;;5012701;28;20088;-48
2022/07/13 10:29:57;;;;;;;6.43;4.10;;;30.10;99.90;;;;;;5013510;28;20033;-45
2022/07/13 10:32:26;;;;;;;5.47;4.20;;;30.10;99.90;;;;;;5013608;28;20026;-46
2022/07/13 10:35:01;;;;;;;5.82;3.92;;;30.10;99.90;;;;;;5013422;28;20134;-45
2022/07/13 10:37:27;;;;;;;5.70;4.05;;;30.10;99.90;;;;;;4997531;28;20168;-46
2022/07/13 10:40:13;;;;;;;6.88;4.13;;;30.20;99.90;;;;;;5013409;28;20033;-47
2022/07/13 10:42:57;;;;;;;4.95;3.83;;;30.10;99.90;;;;;;5013463;28;20018;-46
2022/07/13 10:48:06;;;;;;;8.15;6.35;;;30.10;99.90;;;;;;5013391;28;20023;-46
2022/07/13 10:50:52;;;;;;;7.97;5.22;;;30.10;99.90;;;;;;5013143;28;20480;-47
2022/07/13 10:53:19;;;;;;;8.87;5.70;;;30.10;99.90;;;;;;5013428;28;20065;-47
2022/07/13 10:55:49;;;;;;;7.38;5.20;;;30.20;99.90;;;;;;4995442;28;20149;-46
2022/07/13 10:58:39;;;;;;;8.10;4.97;;;30.20;99.90;;;;;;5013158;28;20127;-47
2022/07/13 11:01:32;;;;;;;7.07;5.32;;;30.10;99.90;;;;;;5012866;28;20061;-47
2022/07/13 11:03:58;;;;;;;6.32;5.03;;;30.20;99.90;;;;;;5001515;28;20041;-47
2022/07/13 11:06:25;;;;;;;6.72;4.60;;;30.20;99.90;;;;;;5012799;28;20041;-46
2022/07/13 11:09:13;;;;;;;5.72;4.22;;;30.20;99.90;;;;;;5012883;28;20021;-47
2022/07/13 11:11:45;;;;;;;6.32;4.03;;;30.20;99.90;;;;;;5012737;28;20029;-47
2022/07/13 11:14:36;;;;;;;5.95;4.03;;;30.30;99.90;;;;;;5012689;28;20156;-47
2022/07/13 11:17:18;;;;;;;5.75;4.28;;;30.30;99.90;;;;;;5012865;28;20022;-47
2022/07/13 11:19:57;;;;;;;7.40;4.47;;;30.20;99.90;;;;;;4994826;28;20029;-47
2022/07/13 11:22:25;;;;;;;6.82;4.32;;;30.30;99.90;;;;;;5012714;28;20045;-47
2022/07/13 11:25:13;;;;;;;6.40;4.13;;;30.30;99.90;;;;;;5012648;28;20501;-47
2022/07/13 11:28:07;;;;;;;6.82;4.15;;;30.30;99.90;;;;;;4994838;28;20153;-46
2022/07/13 11:30:36;;;;;;;6.20;4.55;;;30.30;99.90;;;;;;5002571;28;20555;-46
2022/07/13 11:33:01;;;;;;;4.60;3.83;;;30.30;99.90;;;;;;5012453;28;20445;-46
2022/07/13 11:35:27;;;;;;;4.45;3.58;;;30.30;99.90;;;;;;5012402;28;20101;-47
2022/07/13 11:37:53;;;;;;;5.38;3.97;;;30.30;99.90;;;;;;5012386;28;20057;-47
2022/07/13 11:40:30;;;;;;;5.07;3.95;;;30.30;99.90;;;;;;5012089;28;20026;-47
2022/07/13 11:43:00;;;;;;;5.90;4.22;;;30.30;99.90;;;;;;5012419;28;20030;-47
2022/07/13 11:45:30;;;;;;;5.75;4.60;;;30.30;99.90;;;;;;5012456;28;20033;-47
2022/07/13 11:48:00;;;;;;;5.22;3.90;;;30.30;99.90;;;;;;5012113;28;20034;-46
2022/07/13 11:50:55;;;;;;;6.68;4.05;;;30.30;99.90;;;;;;4994591;28;20474;-47
2022/07/13 11:53:25;;;;;;;8.70;4.30;;;30.30;99.90;;;;;;4991103;28;20042;-46
2022/07/13 11:55:51;;;;;;;5.88;4.03;;;30.40;99.90;;;;;;5012093;28;20100;-47
2022/07/13 11:58:29;;;;;;;5.97;3.97;;;30.40;99.90;;;;;;5012101;28;20017;-46
2022/07/13 12:00:55;;;;;;;;;;;30.40;99.90;;;;;;5012280;28;20815;-47
2022/07/13 12:03:26;;;;;;;6.22;3.90;;;30.40;99.90;;;;;;4994792;28;19905;-46
2022/07/13 12:05:52;;;;;;;5.22;3.53;;;30.40;99.90;;;;;;5011877;28;20038;-45
2022/07/13 12:08:18;;;;;;;6.40;3.93;;;30.40;99.90;;;;;;5011991;28;20048;-46
2022/07/13 12:10:44;;;;;;;5.05;3.58;;;30.40;99.90;;;;;;4994155;28;20305;-46
2022/07/13 12:13:10;;;;;;;6.15;3.78;;;30.40;99.90;;;;;;5011623;28;20042;-46
2022/07/13 12:15:36;;;;;;;7.72;4.03;;;30.40;99.90;;;;;;5011681;28;20095;-46
2022/07/13 12:18:05;;;;;;;7.00;3.50;;;30.40;99.90;;;;;;5011896;28;20022;-45
2022/07/13 12:20:33;;;;;;;5.43;3.30;;;30.40;99.90;;;;;;5011689;28;20030;-46
2022/07/13 12:22:59;;;;;;;7.85;3.58;;;30.40;99.90;;;;;;5011711;28;20022;-45
2022/07/13 12:25:31;;;;;;;6.32;3.78;;;30.50;99.90;;;;;;5011790;28;20389;-47
2022/07/13 12:28:01;;;;;;;5.10;3.70;;;30.40;99.90;;;;;;5011552;28;20029;-47
2022/07/13 12:30:28;;;;;;;5.63;3.83;;;30.40;99.90;;;;;;5011581;28;20025;-45
2022/07/13 12:32:59;;;;;;;5.60;3.60;;;30.50;99.90;;;;;;5011533;28;20026;-46
2022/07/13 12:35:30;;;;;;;5.43;3.63;;;30.40;99.90;;;;;;5011614;28;20088;-47
2022/07/13 12:37:57;;;;;;;4.55;3.15;;;30.50;99.90;;;;;;5011656;28;20029;-47
2022/07/13 12:40:52;;;;;;;4.95;3.78;;;30.50;99.90;;;;;;5011757;28;20110;-48
2022/07/13 12:43:25;;;;;;;4.57;4.00;;;30.50;99.90;;;;;;5011651;28;20484;-48
2022/07/13 12:46:01;;;;;;;5.80;4.03;;;30.50;99.90;;;;;;5011583;28;20018;-47
2022/07/13 12:48:34;;;;;;;4.93;4.13;;;30.50;99.90;;;;;;5011054;28;20049;-47
2022/07/13 12:51:08;;;;;;;5.45;4.05;;;30.50;99.90;;;;;;4993893;28;20434;-47
2022/07/13 12:53:53;;;;;;;4.82;3.60;;;30.60;99.90;;;;;;5011518;28;20113;-46
2022/07/13 12:56:24;;;;;;;5.97;3.90;;;30.50;99.90;;;;;;5011261;28;20113;-46
2022/07/13 12:58:55;;;;;;;7.00;4.25;;;30.60;99.90;;;;;;5011378;28;20427;-46
2022/07/13 13:01:35;;;;;;;5.00;3.88;;;30.60;99.90;;;;;;5011279;28;20049;-46
2022/07/13 13:04:03;;;;;;;6.07;3.92;;;30.50;99.90;;;;;;5011335;28;20108;-46